createdAt,value
2022-10-14T00:01:14.322Z,20.60
2022-10-14T00:03:42.454Z,20.30
2022-10-14T00:06:13.949Z,21.97
2022-10-14T00:08:42.270Z,20.53
2022-10-14T00:11:17.798Z,21.50
2022-10-14T00:13:46.484Z,21.10
2022-10-14T00:16:20.481Z,20.77
2022-10-14T00:18:48.942Z,21.10
2022-10-14T00:21:17.118Z,21.77
2022-10-14T00:23:45.640Z,22.60
2022-10-14T00:26:21.299Z,21.67
2022-10-14T00:28:50.825Z,22.10
2022-10-14T00:31:19.329Z,22.00
2022-10-14T00:33:48.897Z,22.17
2022-10-14T00:36:18.702Z,22.97
2022-10-14T00:38:46.788Z,22.83
2022-10-14T00:41:16.678Z,23.10
2022-10-14T00:44:01.192Z,22.20
2022-10-14T00:46:31.085Z,22.63
2022-10-14T00:49:06.874Z,24.00
2022-10-14T00:51:36.061Z,23.83
2022-10-14T00:54:04.512Z,24.03
2022-10-14T00:56:33.180Z,23.83
2022-10-14T00:59:04.740Z,23.27
2022-10-14T01:01:32.946Z,24.23
2022-10-14T01:04:00.727Z,24.50
2022-10-14T01:06:42.501Z,24.33
2022-10-14T01:09:20.007Z,24.57
2022-10-14T01:12:27.050Z,23.97
2022-10-14T01:14:54.657Z,23.27
2022-10-14T01:17:35.871Z,24.90
2022-10-14T01:20:34.048Z,25.13
2022-10-14T01:23:24.724Z,24.53
2022-10-14T01:26:02.654Z,24.73
2022-10-14T01:28:43.444Z,25.17
2022-10-14T01:31:18.996Z,25.10
2022-10-14T01:33:49.026Z,25.27
2022-10-14T01:36:21.834Z,25.00
2022-10-14T01:38:53.782Z,25.27
2022-10-14T01:41:26.757Z,24.97
2022-10-14T01:43:58.775Z,24.63
2022-10-14T01:46:29.611Z,25.73
2022-10-14T01:49:02.959Z,25.53
2022-10-14T01:51:37.134Z,25.73
2022-10-14T01:54:09.433Z,24.53
2022-10-14T01:56:40.539Z,25.40
2022-10-14T01:59:10.671Z,25.53
2022-10-14T02:01:39.921Z,25.63
2022-10-14T02:04:16.150Z,25.23
2022-10-14T02:06:50.749Z,25.33
2022-10-14T02:09:24.733Z,26.43
2022-10-14T02:12:04.325Z,25.60
2022-10-14T02:14:40.450Z,25.43
2022-10-14T02:17:17.944Z,26.47
2022-10-14T02:19:51.368Z,25.20
2022-10-14T02:22:26.222Z,26.70
2022-10-14T02:24:58.286Z,25.80
2022-10-14T02:27:28.850Z,25.83
2022-10-14T02:29:58.839Z,26.57
2022-10-14T02:32:29.256Z,24.43
2022-10-14T02:34:59.619Z,25.57
2022-10-14T02:37:30.475Z,25.50
2022-10-14T02:40:05.931Z,25.17
2022-10-14T02:42:33.944Z,25.37
2022-10-14T02:45:05.835Z,25.60
2022-10-14T02:47:35.154Z,25.70
2022-10-14T02:50:03.038Z,25.77
2022-10-14T02:52:31.387Z,25.20
2022-10-14T02:54:59.302Z,26.27
2022-10-14T02:57:27.188Z,25.70
2022-10-14T02:59:58.017Z,25.10
2022-10-14T03:02:26.254Z,24.83
2022-10-14T03:04:55.501Z,25.40
2022-10-14T03:07:24.144Z,24.70
2022-10-14T03:09:53.353Z,26.23
2022-10-14T03:12:21.434Z,25.27
2022-10-14T03:14:50.635Z,25.33
2022-10-14T03:17:19.709Z,24.87
2022-10-14T03:19:50.009Z,25.27
2022-10-14T03:22:19.654Z,25.47
2022-10-14T03:24:47.682Z,25.03
2022-10-14T03:27:26.352Z,24.10
2022-10-14T03:29:59.943Z,24.60
2022-10-14T03:32:27.863Z,24.03
2022-10-14T03:35:17.886Z,25.27
2022-10-14T03:37:49.879Z,25.33
2022-10-14T03:40:21.639Z,24.60
2022-10-14T03:42:50.116Z,25.33
2022-10-14T03:45:18.467Z,24.80
2022-10-14T03:47:48.368Z,24.73
2022-10-14T03:50:16.368Z,25.30
2022-10-14T03:52:54.618Z,24.57
2022-10-14T03:55:29.856Z,23.90
2022-10-14T03:57:58.207Z,24.50
2022-10-14T04:00:27.818Z,25.20
2022-10-14T04:03:09.551Z,24.13
2022-10-14T04:05:41.982Z,25.37
2022-10-14T04:08:15.462Z,25.77
2022-10-14T04:10:53.744Z,25.40
2022-10-14T04:13:21.841Z,26.03
2022-10-14T04:15:49.951Z,25.67
2022-10-14T04:18:25.289Z,24.20
2022-10-14T04:20:56.522Z,25.17
2022-10-14T04:23:27.786Z,24.97
2022-10-14T04:26:05.161Z,25.77
2022-10-14T04:28:33.698Z,25.57
2022-10-14T04:31:09.642Z,24.70
2022-10-14T04:33:50.857Z,25.03
2022-10-14T04:36:25.602Z,25.13
2022-10-14T04:38:56.589Z,26.17
2022-10-14T04:41:25.305Z,24.67
2022-10-14T04:43:55.178Z,25.90
2022-10-14T04:46:31.443Z,25.53
2022-10-14T04:48:59.650Z,26.03
2022-10-14T04:51:32.567Z,26.63
2022-10-14T04:54:13.652Z,26.13
2022-10-14T04:56:49.371Z,25.63
2022-10-14T04:59:17.224Z,26.80
2022-10-14T05:01:56.951Z,25.93
2022-10-14T05:04:33.343Z,27.57
2022-10-14T05:07:02.567Z,26.07
2022-10-14T05:09:32.044Z,26.83
2022-10-14T05:11:59.959Z,26.23
2022-10-14T05:14:38.747Z,26.47
2022-10-14T05:17:15.890Z,26.13
2022-10-14T05:19:45.136Z,24.90
2022-10-14T05:22:13.361Z,25.03
2022-10-14T05:24:46.869Z,25.37
2022-10-14T05:27:16.085Z,25.47
2022-10-14T05:29:44.770Z,26.27
2022-10-14T05:32:12.668Z,24.87
2022-10-14T05:34:44.894Z,25.10
2022-10-14T05:37:19.299Z,25.07
2022-10-14T05:39:52.695Z,24.57
2022-10-14T05:42:25.010Z,24.60
2022-10-14T05:44:55.384Z,25.27
2022-10-14T05:47:24.411Z,24.63
2022-10-14T05:49:58.624Z,24.90
2022-10-14T05:52:26.481Z,24.23
2022-10-14T05:54:57.205Z,24.57
2022-10-14T05:57:29.082Z,23.50
2022-10-14T05:59:57.725Z,24.63
2022-10-14T06:02:26.028Z,24.77
2022-10-14T06:04:55.087Z,23.23
2022-10-14T06:07:24.688Z,23.47
2022-10-14T06:09:52.526Z,24.77
2022-10-14T06:12:23.058Z,23.77
2022-10-14T06:14:51.823Z,24.33
2022-10-14T06:17:20.044Z,24.23
2022-10-14T06:19:48.252Z,23.90
2022-10-14T06:22:16.264Z,23.93
2022-10-14T06:24:44.095Z,23.80
2022-10-14T06:27:12.068Z,22.37
2022-10-14T06:29:41.251Z,23.63
2022-10-14T06:32:10.537Z,22.93
2022-10-14T06:34:38.360Z,23.77
2022-10-14T06:37:06.239Z,22.67
2022-10-14T06:39:34.112Z,22.60
2022-10-14T06:42:03.548Z,21.20
2022-10-14T06:44:31.384Z,22.20
2022-10-14T06:47:00.511Z,22.90
2022-10-14T06:49:28.502Z,21.20
2022-10-14T06:51:56.267Z,20.57
2022-10-14T06:54:24.076Z,21.93
2022-10-14T06:56:52.001Z,20.40
2022-10-14T06:59:19.800Z,21.07
2022-10-14T07:01:47.829Z,22.20
2022-10-14T07:04:17.176Z,21.97
2022-10-14T07:06:45.070Z,22.07
2022-10-14T07:09:13.010Z,23.97
2022-10-14T07:11:42.791Z,22.17
2022-10-14T07:14:11.146Z,21.53
2022-10-14T07:16:39.760Z,22.20
2022-10-14T07:19:07.670Z,23.27
2022-10-14T07:21:36.818Z,25.10
2022-10-14T07:24:04.861Z,23.23
2022-10-14T07:26:32.690Z,23.77
2022-10-14T07:29:00.703Z,25.73
2022-10-14T07:31:29.852Z,24.97
2022-10-14T07:33:57.802Z,24.37
2022-10-14T07:36:25.674Z,26.37
2022-10-14T07:38:55.214Z,25.93
2022-10-14T07:41:25.281Z,24.97
2022-10-14T07:43:55.394Z,24.90
2022-10-14T07:46:29.672Z,26.90
2022-10-14T07:48:59.046Z,25.43
2022-10-14T07:51:27.235Z,24.67
2022-10-14T07:53:57.854Z,24.60
2022-10-14T07:56:25.776Z,26.60
2022-10-14T07:58:53.894Z,26.07
2022-10-14T08:01:24.115Z,26.00
2022-10-14T08:03:52.397Z,25.53
2022-10-14T08:06:20.334Z,24.43
2022-10-14T08:08:48.850Z,24.97
2022-10-14T08:11:22.694Z,23.33
2022-10-14T08:13:51.605Z,25.10
2022-10-14T08:16:22.079Z,26.53
2022-10-14T08:18:50.841Z,25.17
2022-10-14T08:21:20.888Z,26.83
2022-10-14T08:23:49.584Z,25.53
2022-10-14T08:26:22.703Z,25.60
2022-10-14T08:28:51.981Z,25.60
2022-10-14T08:31:20.518Z,24.40
2022-10-14T08:33:48.675Z,23.83
2022-10-14T08:36:16.688Z,25.40
2022-10-14T08:38:44.630Z,23.87
2022-10-14T08:41:35.224Z,23.07
2022-10-14T08:44:17.880Z,22.10
2022-10-14T08:46:52.256Z,22.30
2022-10-14T08:49:25.099Z,21.53
2022-10-14T08:51:56.975Z,22.03
2022-10-14T08:54:31.654Z,21.17
2022-10-14T08:57:00.768Z,22.53
2022-10-14T08:59:30.497Z,24.47
2022-10-14T09:02:02.882Z,22.13
2022-10-14T09:04:32.344Z,23.50
2022-10-14T09:07:00.971Z,28.80
2022-10-14T09:09:36.010Z,22.90
2022-10-14T09:12:08.218Z,22.30
2022-10-14T09:14:40.223Z,22.73
2022-10-14T09:17:14.703Z,22.07
2022-10-14T09:19:47.630Z,23.50
2022-10-14T09:22:16.655Z,22.83
2022-10-14T09:24:48.217Z,24.63
2022-10-14T09:27:17.884Z,21.87
2022-10-14T09:29:50.768Z,23.23
2022-10-14T09:32:29.409Z,23.03
2022-10-14T09:34:59.404Z,22.13
2022-10-14T09:37:29.215Z,22.80
2022-10-14T09:40:02.178Z,20.80
2022-10-14T09:42:45.360Z,21.00
2022-10-14T09:45:16.900Z,20.30
2022-10-14T09:47:53.184Z,20.77
2022-10-14T09:50:32.211Z,20.83
2022-10-14T09:53:06.059Z,20.10
2022-10-14T09:55:36.387Z,19.77
2022-10-14T09:58:07.607Z,17.47
2022-10-14T10:00:38.613Z,16.43
2022-10-14T10:03:07.844Z,15.83
2022-10-14T10:05:36.932Z,14.90
2022-10-14T10:08:11.042Z,15.70
2022-10-14T10:10:38.933Z,14.90
2022-10-14T10:13:22.374Z,15.30
2022-10-14T10:16:00.260Z,14.13
2022-10-14T10:18:28.903Z,14.33
2022-10-14T10:21:06.884Z,14.83
2022-10-14T10:23:37.309Z,16.60
2022-10-14T10:26:22.957Z,14.73
2022-10-14T10:28:50.926Z,14.27
2022-10-14T10:31:33.386Z,14.40
2022-10-14T10:34:10.910Z,13.87
2022-10-14T10:36:43.911Z,15.17
2022-10-14T10:39:24.600Z,14.17
2022-10-14T10:42:04.022Z,15.00
2022-10-14T10:44:49.431Z,15.03
2022-10-14T10:47:34.359Z,14.67
2022-10-14T10:50:22.492Z,13.87
2022-10-14T10:53:04.344Z,15.03
2022-10-14T10:55:39.696Z,16.73
2022-10-14T10:58:26.115Z,16.70
2022-10-14T11:01:02.100Z,15.87
2022-10-14T11:03:45.319Z,16.77
2022-10-14T11:06:43.277Z,16.60
2022-10-14T11:09:33.514Z,16.10
2022-10-14T11:12:15.411Z,18.90
2022-10-14T11:15:16.574Z,16.73
2022-10-14T11:17:50.798Z,16.00
2022-10-14T11:20:33.682Z,15.93
2022-10-14T11:23:24.266Z,14.03
2022-10-14T11:25:57.955Z,15.50
2022-10-14T11:28:36.347Z,14.57
2022-10-14T11:31:11.438Z,13.70
2022-10-14T11:33:51.910Z,13.67
2022-10-14T11:36:31.910Z,14.13
2022-10-14T11:39:26.018Z,13.70
2022-10-14T11:42:04.897Z,14.27
2022-10-14T11:44:36.522Z,13.90
2022-10-14T11:47:10.969Z,14.37
2022-10-14T11:49:45.407Z,15.30
2022-10-14T11:52:20.837Z,13.93
2022-10-14T11:54:53.745Z,14.03
2022-10-14T11:57:30.612Z,13.77
2022-10-14T12:00:36.708Z,13.53
2022-10-14T12:03:12.844Z,12.40
2022-10-14T12:05:46.471Z,13.33
2022-10-14T12:08:25.911Z,13.50
2022-10-14T12:10:59.369Z,13.53
2022-10-14T12:13:35.527Z,17.27
2022-10-14T12:16:05.400Z,19.00
2022-10-14T12:21:15.657Z,14.27
2022-10-14T12:23:49.233Z,13.93
2022-10-14T12:26:36.024Z,13.87
2022-10-14T12:29:05.062Z,15.17
2022-10-14T12:31:38.131Z,14.93
2022-10-14T12:34:30.461Z,14.93
2022-10-14T12:36:58.421Z,14.03
2022-10-14T12:39:35.574Z,14.87
2022-10-14T12:42:06.888Z,15.60
2022-10-14T12:44:42.633Z,14.70
2022-10-14T12:47:19.260Z,14.57
2022-10-14T12:49:50.415Z,13.73
2022-10-14T12:52:23.102Z,14.10
2022-10-14T12:57:31.864Z,13.07
2022-10-14T13:00:04.179Z,12.70
2022-10-14T13:02:34.990Z,13.07
2022-10-14T13:05:07.735Z,12.73
2022-10-14T13:07:44.678Z,13.80
2022-10-14T13:10:46.961Z,14.23
2022-10-14T13:14:04.234Z,13.30
2022-10-14T13:17:00.226Z,13.33
2022-10-14T13:19:46.487Z,13.47
2022-10-14T13:22:37.914Z,11.90
2022-10-14T13:25:13.179Z,12.80
2022-10-14T13:28:04.908Z,11.57
2022-10-14T13:30:38.041Z,12.93
2022-10-14T13:33:16.907Z,12.40
2022-10-14T13:35:53.895Z,11.40
2022-10-14T13:38:23.794Z,11.77
2022-10-14T13:40:55.628Z,11.90
2022-10-14T13:43:30.377Z,11.00
2022-10-14T13:46:06.884Z,10.33
2022-10-14T13:48:38.068Z,9.77
2022-10-14T13:51:36.132Z,8.57
2022-10-14T13:54:16.205Z,8.97
2022-10-14T13:56:44.472Z,8.60
2022-10-14T13:59:43.761Z,8.37
2022-10-14T14:02:15.748Z,7.93
2022-10-14T14:04:49.026Z,8.70
2022-10-14T14:07:59.676Z,8.60
2022-10-14T14:10:10.791Z,9.53
2022-10-14T14:12:42.384Z,10.20
2022-10-14T14:15:20.344Z,10.47
2022-10-14T14:17:48.331Z,10.80
2022-10-14T14:20:22.184Z,10.50
2022-10-14T14:22:51.525Z,11.03
2022-10-14T14:25:34.965Z,10.67
2022-10-14T14:28:15.044Z,9.90
2022-10-14T14:30:54.525Z,9.53
2022-10-14T14:33:28.904Z,9.83
2022-10-14T14:35:58.904Z,10.00
2022-10-14T14:38:31.274Z,9.93
2022-10-14T14:41:03.414Z,10.10
2022-10-14T14:43:36.457Z,10.23
2022-10-14T14:46:07.522Z,10.13
2022-10-14T14:48:35.908Z,9.90
2022-10-14T14:51:03.926Z,9.53
2022-10-14T14:53:32.060Z,9.90
2022-10-14T14:56:03.330Z,10.03
2022-10-14T14:58:35.628Z,9.40
2022-10-14T15:01:16.686Z,6.73
2022-10-14T15:04:12.925Z,9.70
2022-10-14T15:06:50.698Z,9.47
2022-10-14T15:09:24.616Z,9.17
2022-10-14T15:11:54.972Z,8.90
2022-10-14T15:14:34.363Z,9.00
2022-10-14T15:17:06.422Z,10.20
2022-10-14T15:19:38.384Z,10.60
2022-10-14T15:22:34.439Z,9.90
2022-10-14T15:25:07.710Z,11.47
2022-10-14T15:27:52.753Z,11.17
2022-10-14T15:30:23.929Z,11.60
2022-10-14T15:32:55.908Z,11.13
2022-10-14T15:35:24.748Z,12.17
2022-10-14T15:37:53.915Z,11.53
2022-10-14T15:40:24.288Z,12.17
2022-10-14T15:42:52.150Z,11.93
2022-10-14T15:45:20.443Z,11.83
2022-10-14T15:50:30.168Z,12.03
2022-10-14T15:52:57.984Z,12.47
2022-10-14T15:55:29.616Z,11.63
2022-10-14T15:57:59.313Z,11.90
2022-10-14T16:00:27.162Z,12.03
2022-10-14T16:02:59.406Z,12.03
2022-10-14T16:05:29.123Z,11.90
2022-10-14T16:07:57.425Z,11.50
2022-10-14T16:10:29.240Z,11.90
2022-10-14T16:13:00.342Z,11.40
2022-10-14T16:15:33.224Z,11.57
2022-10-14T16:18:02.763Z,10.57
2022-10-14T16:20:31.390Z,10.70
2022-10-14T16:23:01.200Z,10.17
2022-10-14T16:25:33.624Z,11.07
2022-10-14T16:28:01.483Z,10.30
2022-10-14T16:30:29.265Z,10.70
2022-10-14T16:32:57.104Z,10.00
2022-10-14T16:35:26.222Z,10.30
2022-10-14T16:37:54.596Z,10.10
2022-10-14T16:40:23.066Z,10.63
2022-10-14T16:42:50.879Z,10.07
2022-10-14T16:45:19.224Z,9.97
2022-10-14T16:47:47.194Z,9.53
2022-10-14T16:50:15.006Z,9.93
2022-10-14T16:53:05.868Z,10.37
2022-10-14T16:55:34.320Z,10.03
2022-10-14T16:58:02.302Z,11.07
2022-10-14T17:00:30.219Z,10.47
2022-10-14T17:02:58.048Z,9.53
2022-10-14T17:05:26.926Z,9.77
2022-10-14T17:07:56.044Z,10.17
2022-10-14T17:10:24.610Z,10.13
2022-10-14T17:12:53.830Z,9.50
2022-10-14T17:15:22.321Z,10.43
2022-10-14T17:17:50.085Z,9.97
2022-10-14T17:20:20.177Z,10.37
2022-10-14T17:22:49.720Z,10.60
2022-10-14T17:25:19.938Z,11.37
2022-10-14T17:27:47.883Z,11.10
2022-10-14T17:30:15.794Z,11.47
2022-10-14T17:32:43.718Z,11.80
2022-10-14T17:35:15.054Z,11.00
2022-10-14T17:37:43.255Z,10.70
2022-10-14T17:40:11.785Z,11.40
2022-10-14T17:42:41.732Z,10.43
2022-10-14T17:45:10.831Z,11.47
2022-10-14T17:47:38.714Z,10.87
2022-10-14T17:50:08.813Z,10.33
2022-10-14T17:52:36.754Z,10.57
2022-10-14T17:55:04.890Z,10.73
2022-10-14T17:57:32.804Z,10.73
2022-10-14T18:00:01.930Z,10.23
2022-10-14T18:02:39.660Z,10.63
2022-10-14T18:05:08.138Z,10.23
2022-10-14T18:07:37.545Z,10.17
2022-10-14T18:10:06.611Z,9.50
2022-10-14T18:12:34.397Z,10.67
2022-10-14T18:15:03.580Z,10.17
2022-10-14T18:17:31.340Z,9.43
2022-10-14T18:20:04.034Z,9.87
2022-10-14T18:22:32.487Z,9.87
2022-10-14T18:25:00.323Z,10.27
2022-10-14T18:27:28.194Z,10.10
2022-10-14T18:29:55.956Z,10.80
2022-10-14T18:32:25.452Z,9.93
2022-10-14T18:34:53.514Z,9.90
2022-10-14T18:37:21.342Z,9.93
2022-10-14T18:39:49.128Z,9.40
2022-10-14T18:42:20.063Z,9.40
2022-10-14T18:44:48.959Z,8.97
2022-10-14T18:47:16.842Z,8.90
2022-10-14T18:49:46.951Z,8.50
2022-10-14T18:52:14.769Z,8.27
2022-10-14T18:54:42.608Z,8.60
2022-10-14T18:57:14.722Z,8.13
2022-10-14T18:59:42.769Z,7.50
2022-10-14T19:02:13.487Z,8.10
2022-10-14T19:04:41.587Z,7.77
2022-10-14T19:07:10.721Z,7.63
2022-10-14T19:09:38.563Z,7.93
2022-10-14T19:12:26.859Z,7.50
2022-10-14T19:14:54.671Z,7.43
2022-10-14T19:17:22.434Z,7.90
2022-10-14T19:19:50.383Z,7.37
2022-10-14T19:22:19.940Z,7.13
2022-10-14T19:24:48.032Z,7.63
2022-10-14T19:27:16.011Z,7.73
2022-10-14T19:29:43.868Z,7.43
2022-10-14T19:32:11.690Z,7.20
2022-10-14T19:34:42.553Z,7.30
2022-10-14T19:37:12.763Z,6.87
2022-10-14T19:39:42.016Z,6.97
2022-10-14T19:42:09.831Z,6.70
2022-10-14T19:44:37.613Z,6.40
2022-10-14T19:47:05.630Z,6.30
2022-10-14T19:49:33.406Z,6.10
2022-10-14T19:52:01.222Z,6.10
2022-10-14T19:54:29.174Z,6.10
2022-10-14T19:56:58.357Z,6.50
2022-10-14T19:59:26.266Z,6.33
2022-10-14T20:01:54.158Z,6.33
2022-10-14T20:04:23.942Z,6.30
2022-10-14T20:06:54.455Z,6.23
2022-10-14T20:09:22.248Z,6.70
2022-10-14T20:11:50.073Z,6.57
2022-10-14T20:14:19.385Z,6.80
2022-10-14T20:16:49.871Z,6.60
2022-10-14T20:19:20.141Z,6.53
2022-10-14T20:21:47.937Z,6.73
2022-10-14T20:24:15.929Z,7.13
2022-10-14T20:26:43.802Z,6.67
2022-10-14T20:29:12.390Z,6.03
2022-10-14T20:31:41.497Z,6.40
2022-10-14T20:34:10.405Z,6.40
2022-10-14T20:36:39.195Z,6.50
2022-10-14T20:39:07.054Z,6.93
2022-10-14T20:41:34.899Z,6.97
2022-10-14T20:44:02.787Z,6.70
2022-10-14T20:46:30.638Z,6.70
2022-10-14T20:48:59.754Z,6.00
2022-10-14T20:51:28.062Z,6.27
2022-10-14T20:54:01.699Z,6.77
2022-10-14T20:56:33.393Z,6.40
2022-10-14T20:59:03.165Z,6.47
2022-10-14T21:01:32.476Z,6.37
2022-10-14T21:04:03.906Z,6.43
2022-10-14T21:06:32.353Z,6.40
2022-10-14T21:09:01.279Z,6.60
2022-10-14T21:11:29.375Z,5.93
2022-10-14T21:13:59.435Z,6.13
2022-10-14T21:16:29.631Z,6.37
2022-10-14T21:18:59.194Z,6.63
2022-10-14T21:21:30.203Z,6.47
2022-10-14T21:23:59.353Z,6.13
2022-10-14T21:26:27.482Z,6.17
2022-10-14T21:28:55.360Z,5.97
2022-10-14T21:31:23.714Z,6.40
2022-10-14T21:33:55.615Z,6.00
2022-10-14T21:36:23.753Z,5.67
2022-10-14T21:38:53.381Z,6.13
2022-10-14T21:41:21.226Z,6.10
2022-10-14T21:43:49.204Z,6.03
2022-10-14T21:46:17.668Z,6.40
2022-10-14T21:48:46.369Z,6.30
2022-10-14T21:51:16.579Z,5.93
2022-10-14T21:53:45.778Z,5.90
2022-10-14T21:56:16.771Z,6.30
2022-10-14T21:58:45.033Z,6.10
2022-10-14T22:01:15.941Z,6.07
2022-10-14T22:03:44.596Z,6.40
2022-10-14T22:06:14.392Z,5.83
2022-10-14T22:08:45.258Z,6.63
2022-10-14T22:11:19.060Z,6.70
2022-10-14T22:13:47.370Z,6.43
2022-10-14T22:16:16.821Z,6.13
2022-10-14T22:18:46.645Z,6.50
2022-10-14T22:21:16.521Z,6.33
2022-10-14T22:23:44.660Z,5.97
2022-10-14T22:26:14.723Z,6.33
2022-10-14T22:28:44.542Z,6.23
2022-10-14T22:31:14.348Z,6.43
2022-10-14T22:33:42.624Z,6.40
2022-10-14T22:36:12.214Z,6.07
2022-10-14T22:38:41.426Z,6.40
2022-10-14T22:41:10.665Z,6.33
2022-10-14T22:43:40.338Z,6.40
2022-10-14T22:46:12.641Z,6.00
2022-10-14T22:48:40.697Z,5.60
2022-10-14T22:51:10.234Z,5.97
2022-10-14T22:53:39.538Z,6.47
2022-10-14T22:56:09.003Z,6.07
2022-10-14T22:58:37.365Z,5.90
2022-10-14T23:01:11.118Z,6.30
2022-10-14T23:03:39.462Z,6.20
2022-10-14T23:06:09.003Z,7.13
2022-10-14T23:08:36.883Z,6.87
2022-10-14T23:11:05.473Z,6.97
2022-10-14T23:13:33.943Z,7.00
2022-10-14T23:16:04.463Z,7.00
2022-10-14T23:18:36.626Z,6.97
2022-10-14T23:21:11.881Z,6.67
2022-10-14T23:23:40.644Z,6.97
2022-10-14T23:26:09.978Z,7.40
2022-10-14T23:28:38.079Z,6.57
2022-10-14T23:31:10.571Z,7.37
2022-10-14T23:33:40.360Z,7.10
2022-10-14T23:36:10.462Z,7.93
2022-10-14T23:38:39.252Z,7.50
2022-10-14T23:41:08.442Z,7.17
2022-10-14T23:43:36.641Z,7.73
2022-10-14T23:46:05.247Z,8.40
2022-10-14T23:48:33.552Z,7.90
2022-10-14T23:51:02.907Z,7.33
2022-10-14T23:53:30.727Z,7.30
2022-10-14T23:55:58.648Z,7.90
2022-10-14T23:58:28.411Z,7.90
